Terminal Aerodrome Forecast
Issued by NWS

Home | Current Version | Previous Version | Text Only | Print | Product List | Glossary On
Versions: 1 2 3 4 5 6 7 8 9 10 11 12 13 14 15 16 17 18 19
000
FTUS46 KSTO 200539
TAFSCK
TAF
KSCK 200539Z 2006/2106 14014G20KT P6SM VCSH OVC050
     FM200900 14020G30KT P6SM RA OVC025
     FM201500 14020G30KT 4SM RA OVC025
     FM210100 16035G48KT 5SM -RA OVC025=

USA.gov is the U.S. government's official web portal to all federal, state and local government web resources and services.